McCook, NE

10:56 PM CST del 21 Dicembre 2014 (GMT -0600)
McCook Municipal | Change Station
CLOSE
Current Station
Aeroporto
Location: McCook,
Altitudine: 2579 ft
Stazioni meteo nelle vicinanze
Avvisi attivi: High Wind Watch

Alt. 2579 ft 40.20 °N, 100.59 °W | Updated 3 minutes ago

Coperto
Coperto
34 °F
Sembra 29 °F
N
6
Vento Variabile Vento da OSO

Oggi
Massima -- | Minima -- °F
--% Possibilità di precip.
Ieri
Massima -- | Minima -- °F
Precip. -- in
8:01 AM 5:19 PM
Luna nuova, 0% visible
Pressione 29.55 in
Visibilità 5.0 miglia
Nuvole Alcuni 7500 ft
Molto nuvoloso 10000 ft
Raffreddamento del vento 29 °F
Punto di rugiada 32 °F
Umidità 92%
Piovosità 0.00 in
Spessore del manto nevoso Non disponibile.
Raggi UV 0 fuori da 12
Polline .10 fuori da 12
Qualità dell'aria Non disponibile.
Flu Activity Non disponibile.
METAR KMCK 220453Z AUTO 24005KT 5SM BR FEW075 BKN100 01/00 A2951 RMK AO2 SLP005 T00110000

More Conditions Fewer Conditions

Pressione 29.55 in
Visibilità 5.0 miglia
Nuvole Alcuni 7500 ft
Molto nuvoloso 10000 ft
Raffreddamento del vento 29 °F
Punto di rugiada 32 °F
Umidità 92%
Piovosità 0.00 in
Spessore del manto nevoso Non disponibile.
Raggi UV 0 fuori da 12
Polline .10 fuori da 12
Qualità dell'aria Non disponibile.
Flu Activity Non disponibile.
METAR KMCK 220453Z AUTO 24005KT 5SM BR FEW075 BKN100 01/00 A2951 RMK AO2 SLP005 T00110000

More Conditions Fewer Conditions

10-Day Weather Forecast

Almanac

Astronomia

Dec. 21, 2014 Alba Tramonto
Ora attuale
Crepuscolo civile
Crepuscolo nautico
Crepuscolo astronomico
Luna
Estensione della luce visibile
Lunghezza del giorno
Tomorrow will be .
, % of the Moon is Illuminated

Gli estremi di oggi

State Highs State Lows

Community

WunderPhotos

Upload Photos

1,779,540 foto caricate!

WunderBlogs® & News

Nearby

Qualità dell'aria

  Qualità dell'aria Indice AQ Inquinante
Not available.

Profondità neve

Stazione Profondità Altitudine

Attività sismica

Città  Distanza Mag. Data & Ora
Minimo Magnitudo Mostrato è 2.5.

Temperature delle acque costiere

Località Temperatura

Stazioni meteo nelle vicinanze